createdAt,value
2019-03-12T00:01:07.704Z,82.60
2019-03-12T00:03:37.340Z,82.10
2019-03-12T00:06:07.004Z,81.80
2019-03-12T00:08:36.685Z,81.70
2019-03-12T00:11:06.375Z,82.40
2019-03-12T00:13:36.004Z,82.50
2019-03-12T00:16:05.719Z,83.10
2019-03-12T00:18:35.371Z,82.80
2019-03-12T00:21:05.154Z,82.70
2019-03-12T00:23:34.770Z,82.60
2019-03-12T00:26:04.454Z,83.40
2019-03-12T00:28:34.118Z,83.50
2019-03-12T00:31:03.777Z,83.30
2019-03-12T00:33:33.435Z,83.40
2019-03-12T00:36:03.057Z,83.00
2019-03-12T00:38:32.703Z,83.50
2019-03-12T00:41:02.372Z,83.80
2019-03-12T00:43:32.028Z,84.10
2019-03-12T00:46:01.640Z,83.30
2019-03-12T00:48:31.299Z,83.20
2019-03-12T00:51:00.893Z,83.80
2019-03-12T00:53:30.576Z,84.30
2019-03-12T00:56:00.200Z,83.90
2019-03-12T00:58:29.909Z,84.40
2019-03-12T01:00:59.513Z,84.80
2019-03-12T01:03:29.138Z,84.30
2019-03-12T01:05:58.762Z,84.90
2019-03-12T01:08:28.369Z,84.60
2019-03-12T01:10:57.966Z,84.80
2019-03-12T01:13:27.586Z,85.20
2019-03-12T01:15:57.215Z,85.20
2019-03-12T01:18:26.836Z,85.10
2019-03-12T01:20:56.471Z,85.60
2019-03-12T01:23:26.133Z,85.50
2019-03-12T01:25:55.751Z,85.40
2019-03-12T01:28:25.368Z,85.50
2019-03-12T01:30:54.966Z,86.00
2019-03-12T01:33:24.582Z,85.90
2019-03-12T01:35:54.185Z,86.30
2019-03-12T01:38:24.172Z,86.20
2019-03-12T01:40:53.827Z,86.50
2019-03-12T01:43:23.402Z,85.50
2019-03-12T01:45:53.006Z,85.80
2019-03-12T01:48:22.629Z,86.20
2019-03-12T01:50:52.263Z,85.80
2019-03-12T01:53:21.872Z,86.20
2019-03-12T01:55:51.483Z,86.80
2019-03-12T01:58:21.099Z,86.90
2019-03-12T02:00:50.828Z,87.00
2019-03-12T02:03:20.452Z,86.70
2019-03-12T02:05:50.056Z,86.90
2019-03-12T02:08:19.773Z,87.70
2019-03-12T02:10:49.413Z,87.90
2019-03-12T02:13:19.004Z,88.10
2019-03-12T02:15:48.617Z,88.40
2019-03-12T02:18:18.232Z,88.30
2019-03-12T02:20:47.879Z,88.40
2019-03-12T02:23:17.486Z,88.80
2019-03-12T02:25:47.114Z,88.20
2019-03-12T02:28:16.724Z,88.20
2019-03-12T02:30:46.372Z,88.30
2019-03-12T02:33:15.998Z,88.90
2019-03-12T02:35:45.665Z,88.60
2019-03-12T02:38:15.311Z,89.00
2019-03-12T02:40:45.012Z,89.50
2019-03-12T02:43:14.622Z,89.60
2019-03-12T02:45:44.239Z,90.20
2019-03-12T02:48:13.857Z,90.50
2019-03-12T02:50:43.469Z,90.50
2019-03-12T02:53:13.408Z,90.80
2019-03-12T02:55:43.131Z,91.00
2019-03-12T02:58:12.751Z,90.80
2019-03-12T03:00:42.503Z,90.50
2019-03-12T03:03:12.102Z,91.10
2019-03-12T03:05:51.909Z,91.00
2019-03-12T03:08:25.235Z,91.20
2019-03-12T03:10:55.077Z,91.30
2019-03-12T03:13:24.660Z,91.40
2019-03-12T03:15:54.251Z,91.60
2019-03-12T03:18:23.903Z,92.00
2019-03-12T03:20:53.500Z,92.10
2019-03-12T03:23:23.126Z,92.40
2019-03-12T03:25:52.727Z,92.50
2019-03-12T03:28:22.350Z,93.00
2019-03-12T03:30:51.960Z,92.90
2019-03-12T03:33:21.599Z,93.30
2019-03-12T03:35:51.208Z,93.30
2019-03-12T03:38:20.825Z,93.60
2019-03-12T03:40:50.469Z,93.70
2019-03-12T03:43:20.183Z,93.20
2019-03-12T03:45:49.784Z,93.10
2019-03-12T03:48:19.422Z,93.00
2019-03-12T03:50:49.022Z,92.90
2019-03-12T03:53:18.615Z,92.70
2019-03-12T03:55:48.238Z,92.30
2019-03-12T03:58:17.936Z,92.00
2019-03-12T04:00:47.554Z,92.20
2019-03-12T04:03:17.181Z,92.20
2019-03-12T04:05:46.836Z,92.20
2019-03-12T04:08:16.510Z,92.10
2019-03-12T04:10:46.079Z,91.90
2019-03-12T04:13:15.723Z,92.00
2019-03-12T04:15:45.554Z,92.30
2019-03-12T04:18:15.179Z,92.20
2019-03-12T04:20:44.806Z,92.30
2019-03-12T04:23:16.002Z,92.60
2019-03-12T04:25:45.716Z,92.40
2019-03-12T04:28:15.348Z,92.70
2019-03-12T04:30:44.992Z,92.80
2019-03-12T04:33:50.867Z,92.70
2019-03-12T04:36:20.495Z,92.60
2019-03-12T04:38:50.149Z,92.50
2019-03-12T04:41:19.757Z,92.80
2019-03-12T04:43:49.368Z,93.00
2019-03-12T04:46:19.052Z,93.30
2019-03-12T04:48:48.686Z,93.10
2019-03-12T04:51:18.324Z,93.30
2019-03-12T04:53:47.932Z,93.20
2019-03-12T04:56:17.557Z,93.20
2019-03-12T04:58:47.186Z,93.50
2019-03-12T05:01:16.838Z,93.70
2019-03-12T05:03:46.588Z,93.90
2019-03-12T05:06:19.414Z,94.10
2019-03-12T05:08:47.506Z,94.20
2019-03-12T05:11:17.148Z,94.30
2019-03-12T05:14:23.545Z,94.60
2019-03-12T05:16:54.745Z,94.30
2019-03-12T05:19:25.244Z,94.20
2019-03-12T05:21:54.871Z,94.50
2019-03-12T05:24:24.486Z,94.40
2019-03-12T05:26:54.224Z,94.40
2019-03-12T05:29:23.827Z,94.80
2019-03-12T05:31:53.466Z,94.60
2019-03-12T05:34:23.419Z,94.40
2019-03-12T05:36:53.368Z,94.40
2019-03-12T05:39:23.151Z,94.60
2019-03-12T05:41:57.790Z,95.00
2019-03-12T05:44:29.198Z,94.70
2019-03-12T05:46:58.765Z,95.30
2019-03-12T05:49:28.403Z,95.30
2019-03-12T05:51:58.282Z,95.10
2019-03-12T05:54:27.907Z,95.10
2019-03-12T05:56:57.517Z,94.80
2019-03-12T05:59:27.295Z,94.90
2019-03-12T06:01:57.039Z,94.90
2019-03-12T06:04:26.762Z,94.70
2019-03-12T06:07:05.556Z,94.70
2019-03-12T06:09:35.336Z,94.80
2019-03-12T06:12:04.986Z,94.40
2019-03-12T06:14:34.640Z,94.60
2019-03-12T06:17:04.235Z,94.30
2019-03-12T06:19:33.879Z,93.90
2019-03-12T06:22:03.733Z,93.80
2019-03-12T06:24:33.345Z,93.70
2019-03-12T06:27:03.003Z,92.70
2019-03-12T06:29:32.646Z,92.50
2019-03-12T06:32:21.146Z,92.40
2019-03-12T06:35:12.495Z,92.20
2019-03-12T06:37:47.557Z,92.40
2019-03-12T06:40:28.571Z,92.20
2019-03-12T06:43:20.071Z,91.70
2019-03-12T06:46:20.585Z,91.80
2019-03-12T06:49:09.080Z,91.20
2019-03-12T06:51:55.939Z,90.90
2019-03-12T06:54:44.442Z,90.20
2019-03-12T06:57:38.843Z,90.10
2019-03-12T07:00:27.756Z,89.70
2019-03-12T07:03:22.099Z,89.60
2019-03-12T07:06:28.563Z,88.50
2019-03-12T07:09:28.747Z,88.00
2019-03-12T07:12:08.675Z,88.00
2019-03-12T07:14:42.942Z,86.70
2019-03-12T07:17:17.062Z,86.70
2019-03-12T07:20:13.327Z,85.20
2019-03-12T07:22:59.508Z,85.60
2019-03-12T07:25:40.135Z,86.10
2019-03-12T07:28:31.775Z,86.50
2019-03-12T07:31:14.940Z,86.60
2019-03-12T07:33:50.389Z,85.60
2019-03-12T07:36:47.945Z,84.20
2019-03-12T07:39:36.463Z,83.40
2019-03-12T07:42:21.367Z,82.90
2019-03-12T07:45:08.352Z,81.30
2019-03-12T07:48:05.887Z,79.90
2019-03-12T07:51:09.579Z,78.80
2019-03-12T07:54:02.979Z,78.90
2019-03-12T07:56:57.594Z,77.40
2019-03-12T07:59:47.588Z,77.60
2019-03-12T08:02:29.743Z,77.10
2019-03-12T08:05:21.031Z,76.80
2019-03-12T08:08:09.532Z,75.30
2019-03-12T08:10:58.076Z,74.80
2019-03-12T08:13:48.752Z,72.80
2019-03-12T08:16:32.394Z,73.00
2019-03-12T08:19:23.919Z,71.70
2019-03-12T08:22:12.462Z,71.60
2019-03-12T08:24:50.871Z,71.00
2019-03-12T08:27:45.434Z,71.30
2019-03-12T08:30:33.937Z,70.60
2019-03-12T08:33:21.124Z,69.50
2019-03-12T08:36:09.615Z,68.40
2019-03-12T08:38:56.791Z,68.10
2019-03-12T08:42:00.264Z,68.50
2019-03-12T08:44:48.847Z,66.90
2019-03-12T08:47:43.265Z,65.70
2019-03-12T08:50:31.794Z,65.50
2019-03-12T08:53:26.158Z,64.60
2019-03-12T08:56:12.400Z,63.80
2019-03-12T08:58:55.693Z,64.00
2019-03-12T09:01:50.380Z,63.50
2019-03-12T09:04:47.935Z,63.10
2019-03-12T09:07:35.096Z,62.80
2019-03-12T09:10:32.040Z,61.80
2019-03-12T09:13:07.191Z,60.20
2019-03-12T09:16:01.460Z,59.80
2019-03-12T09:19:01.890Z,58.60
2019-03-12T09:21:56.174Z,58.80
2019-03-12T09:24:36.177Z,58.70
2019-03-12T09:27:21.612Z,57.80
2019-03-12T09:30:16.488Z,58.50
2019-03-12T09:32:52.999Z,56.70
2019-03-12T09:35:30.123Z,57.70
2019-03-12T09:38:09.243Z,56.40
2019-03-12T09:40:57.893Z,57.10
2019-03-12T09:43:43.751Z,55.00
2019-03-12T09:46:29.320Z,56.10
2019-03-12T09:49:16.459Z,55.00
2019-03-12T09:51:52.801Z,54.80
2019-03-12T09:54:50.097Z,55.70
2019-03-12T09:57:44.493Z,54.70
2019-03-12T10:00:29.855Z,53.60
2019-03-12T10:03:24.216Z,54.30
2019-03-12T10:06:12.314Z,52.10
2019-03-12T10:08:48.017Z,52.60
2019-03-12T10:11:27.775Z,51.60
2019-03-12T10:14:14.649Z,50.60
2019-03-12T10:17:00.378Z,50.30
2019-03-12T10:19:54.200Z,49.10
2019-03-12T10:22:43.561Z,49.80
2019-03-12T10:25:41.004Z,48.00
2019-03-12T10:28:29.503Z,47.80
2019-03-12T10:31:18.003Z,47.30
2019-03-12T10:34:05.276Z,47.60
2019-03-12T10:36:52.130Z,45.90
2019-03-12T10:40:07.776Z,46.30
2019-03-12T10:42:47.692Z,45.10
2019-03-12T10:45:45.164Z,43.40
2019-03-12T10:48:15.106Z,43.50
2019-03-12T10:50:44.901Z,43.40
2019-03-12T10:53:14.583Z,43.30
2019-03-12T10:55:44.257Z,43.10
2019-03-12T10:58:13.918Z,42.60
2019-03-12T11:00:44.213Z,41.70
2019-03-12T11:03:13.889Z,41.70
2019-03-12T11:05:46.264Z,41.20
2019-03-12T11:08:14.912Z,41.30
2019-03-12T11:10:44.574Z,40.90
2019-03-12T11:13:14.787Z,40.60
2019-03-12T11:15:44.741Z,40.70
2019-03-12T11:18:14.397Z,38.60
2019-03-12T11:20:44.043Z,38.10
2019-03-12T11:23:13.699Z,38.70
2019-03-12T11:25:43.377Z,38.50
2019-03-12T11:28:13.078Z,38.90
2019-03-12T11:30:42.743Z,38.20
2019-03-12T11:33:12.477Z,38.00
2019-03-12T11:35:42.088Z,38.00
2019-03-12T11:38:11.798Z,37.30
2019-03-12T11:40:41.491Z,37.00
2019-03-12T11:43:11.237Z,36.70
2019-03-12T11:45:40.927Z,37.10
2019-03-12T11:48:10.664Z,37.70
2019-03-12T11:50:40.352Z,36.90
2019-03-12T11:53:10.015Z,36.80
2019-03-12T11:55:39.815Z,35.40
2019-03-12T11:58:09.488Z,35.50
2019-03-12T12:00:56.722Z,35.30
2019-03-12T12:03:26.515Z,35.20
2019-03-12T12:05:56.248Z,35.20
2019-03-12T12:08:25.922Z,35.00
2019-03-12T12:10:55.641Z,35.40
2019-03-12T12:13:25.297Z,34.70
2019-03-12T12:15:54.966Z,36.20
2019-03-12T12:18:24.622Z,36.30
2019-03-12T12:20:54.278Z,35.30
2019-03-12T12:23:23.964Z,35.00
2019-03-12T12:25:53.613Z,34.60
2019-03-12T12:28:23.307Z,34.10
2019-03-12T12:30:52.999Z,33.20
2019-03-12T12:33:22.660Z,34.10
2019-03-12T12:35:52.286Z,34.00
2019-03-12T12:38:21.931Z,34.20
2019-03-12T12:40:51.580Z,34.50
2019-03-12T12:43:21.223Z,34.30
2019-03-12T12:45:50.905Z,34.10
2019-03-12T12:48:20.713Z,33.70
2019-03-12T12:51:02.558Z,33.70
2019-03-12T12:53:21.610Z,34.20
2019-03-12T12:55:51.325Z,33.90
2019-03-12T12:58:20.969Z,33.00
2019-03-12T13:00:50.753Z,33.30
2019-03-12T13:03:20.391Z,33.60
2019-03-12T13:05:50.060Z,34.10
2019-03-12T13:08:19.741Z,34.50
2019-03-12T13:10:49.429Z,32.50
2019-03-12T13:13:19.120Z,32.90
2019-03-12T13:15:48.776Z,32.80
2019-03-12T13:18:18.550Z,33.30
2019-03-12T13:20:48.219Z,33.80
2019-03-12T13:23:17.926Z,34.40
2019-03-12T13:25:47.631Z,34.80
2019-03-12T13:28:17.299Z,35.50
2019-03-12T13:30:46.966Z,35.70
2019-03-12T13:33:16.610Z,36.30
2019-03-12T13:35:49.191Z,36.40
2019-03-12T13:38:17.532Z,37.20
2019-03-12T13:40:47.131Z,39.50
2019-03-12T13:43:16.785Z,42.30
2019-03-12T13:45:46.422Z,44.20
2019-03-12T13:48:16.214Z,46.80
2019-03-12T13:50:46.040Z,48.40
2019-03-12T13:53:15.681Z,50.20
2019-03-12T13:55:45.305Z,51.20
2019-03-12T13:58:14.895Z,52.20
2019-03-12T14:00:44.522Z,53.10
2019-03-12T14:03:14.220Z,53.40
2019-03-12T14:05:43.892Z,53.00
2019-03-12T14:08:13.519Z,53.20
2019-03-12T14:10:43.183Z,53.00
2019-03-12T14:13:12.852Z,53.60
2019-03-12T14:15:42.539Z,53.60
2019-03-12T14:18:12.582Z,53.20
2019-03-12T14:20:47.119Z,54.00
2019-03-12T14:23:39.697Z,54.00
2019-03-12T14:26:09.429Z,54.70
2019-03-12T14:28:39.467Z,54.80
2019-03-12T14:31:09.192Z,55.10
2019-03-12T14:33:38.850Z,55.30
2019-03-12T14:36:08.480Z,55.80
2019-03-12T14:38:38.088Z,55.10
2019-03-12T14:41:07.723Z,55.30
2019-03-12T14:43:37.518Z,55.70
2019-03-12T14:46:07.122Z,55.40
2019-03-12T14:48:57.109Z,55.10
2019-03-12T14:52:19.601Z,55.10
2019-03-12T14:54:49.225Z,55.10
2019-03-12T14:57:18.854Z,55.80
2019-03-12T14:59:49.016Z,55.70
2019-03-12T15:02:18.741Z,55.60
2019-03-12T15:04:48.357Z,55.90
2019-03-12T15:07:17.939Z,56.10
2019-03-12T15:09:47.601Z,56.10
2019-03-12T15:12:17.636Z,56.30
2019-03-12T15:14:47.286Z,56.00
2019-03-12T15:17:16.866Z,56.30
2019-03-12T15:19:46.487Z,56.30
2019-03-12T15:22:16.172Z,56.60
2019-03-12T15:24:45.878Z,56.60
2019-03-12T15:27:15.485Z,56.40
2019-03-12T15:29:45.202Z,56.10
2019-03-12T15:32:14.748Z,55.40
2019-03-12T15:34:44.584Z,55.30
2019-03-12T15:37:14.263Z,54.70
2019-03-12T15:39:45.553Z,54.60
2019-03-12T15:42:15.216Z,55.40
2019-03-12T15:44:44.853Z,55.90
2019-03-12T15:47:14.513Z,56.20
2019-03-12T15:49:44.682Z,55.00
2019-03-12T15:52:14.439Z,55.60
2019-03-12T15:54:44.228Z,55.80
2019-03-12T15:57:13.886Z,56.00
2019-03-12T15:59:43.519Z,56.70
2019-03-12T16:02:13.204Z,56.90
2019-03-12T16:04:42.800Z,57.50
2019-03-12T16:07:12.418Z,57.50
2019-03-12T16:09:42.015Z,58.10
2019-03-12T16:12:11.643Z,58.00
2019-03-12T16:14:41.256Z,58.20
2019-03-12T16:17:10.892Z,58.10
2019-03-12T16:19:40.519Z,59.00
2019-03-12T16:22:10.115Z,58.80
2019-03-12T16:24:39.738Z,58.20
2019-03-12T16:27:09.346Z,57.60
2019-03-12T16:29:39.012Z,57.50
2019-03-12T16:32:08.637Z,57.20
2019-03-12T16:34:38.274Z,56.50
2019-03-12T16:37:07.898Z,56.40
2019-03-12T16:39:37.552Z,56.90
2019-03-12T16:42:07.161Z,57.40
2019-03-12T16:44:37.143Z,58.00
2019-03-12T16:47:06.770Z,58.70
2019-03-12T16:49:36.371Z,59.60
2019-03-12T16:52:06.008Z,60.40
2019-03-12T16:54:35.617Z,61.00
2019-03-12T16:57:05.898Z,61.10
2019-03-12T16:59:35.596Z,60.70
2019-03-12T17:02:05.244Z,61.70
2019-03-12T17:04:34.917Z,61.70
2019-03-12T17:07:04.535Z,62.50
2019-03-12T17:09:34.146Z,63.00
2019-03-12T17:12:03.765Z,63.20
2019-03-12T17:14:38.886Z,62.30
2019-03-12T17:17:04.669Z,62.60
2019-03-12T17:19:34.454Z,62.90
2019-03-12T17:22:04.122Z,62.70
2019-03-12T17:24:33.767Z,63.90
2019-03-12T17:27:03.393Z,64.20
2019-03-12T17:29:33.077Z,65.10
2019-03-12T17:32:02.674Z,64.80
2019-03-12T17:34:36.027Z,64.90
2019-03-12T17:37:03.549Z,65.60
2019-03-12T17:39:33.326Z,66.40
2019-03-12T17:42:03.059Z,66.40
2019-03-12T17:44:32.706Z,65.80
2019-03-12T17:47:02.343Z,66.20
2019-03-12T17:49:31.975Z,66.90
2019-03-12T17:52:01.601Z,67.20
2019-03-12T17:54:32.275Z,68.30
2019-03-12T17:57:01.978Z,69.00
2019-03-12T17:59:31.577Z,69.00
2019-03-12T18:02:01.219Z,69.50
2019-03-12T18:04:30.862Z,70.20
2019-03-12T18:07:00.539Z,70.20
2019-03-12T18:09:30.179Z,70.60
2019-03-12T18:11:59.832Z,70.90
2019-03-12T18:14:29.430Z,71.30
2019-03-12T18:16:59.060Z,71.10
2019-03-12T18:19:28.727Z,70.80
2019-03-12T18:21:58.395Z,71.00
2019-03-12T18:24:28.073Z,71.70
2019-03-12T18:26:57.717Z,72.60
2019-03-12T18:29:27.411Z,73.50
2019-03-12T18:31:57.071Z,74.80
2019-03-12T18:34:26.708Z,74.20
2019-03-12T18:36:56.353Z,74.90
2019-03-12T18:39:26.019Z,75.40
2019-03-12T18:41:56.010Z,75.70
2019-03-12T18:44:25.716Z,75.80
2019-03-12T18:46:55.429Z,76.50
2019-03-12T18:49:25.085Z,77.10
2019-03-12T18:51:54.737Z,77.00
2019-03-12T18:54:24.379Z,77.30
2019-03-12T18:56:54.044Z,76.90
2019-03-12T18:59:23.733Z,76.70
2019-03-12T19:01:53.374Z,77.50
2019-03-12T19:04:23.472Z,77.60
2019-03-12T19:06:53.227Z,78.10
2019-03-12T19:09:28.480Z,78.90
2019-03-12T19:11:58.225Z,79.60
2019-03-12T19:14:27.839Z,79.90
2019-03-12T19:16:57.473Z,79.70
2019-03-12T19:19:37.464Z,80.40
2019-03-12T19:22:09.417Z,82.00
2019-03-12T19:24:42.350Z,81.70
2019-03-12T19:27:13.632Z,82.30
2019-03-12T19:29:46.107Z,83.00
2019-03-12T19:32:29.808Z,83.80
2019-03-12T19:35:03.744Z,84.60
2019-03-12T19:37:33.594Z,85.80
2019-03-12T19:40:18.160Z,86.60
2019-03-12T19:42:51.633Z,87.90
2019-03-12T19:45:23.499Z,89.70
2019-03-12T19:47:54.604Z,90.60
2019-03-12T19:50:28.128Z,91.00
2019-03-12T19:52:58.011Z,91.40
2019-03-12T19:55:35.659Z,91.80
2019-03-12T19:58:05.541Z,92.40
2019-03-12T20:00:35.736Z,92.70
2019-03-12T20:03:10.659Z,93.20
2019-03-12T20:05:37.162Z,93.70
2019-03-12T20:08:06.827Z,94.30
2019-03-12T20:11:12.951Z,94.50
2019-03-12T20:14:38.970Z,94.60
2019-03-12T20:17:57.406Z,94.90
2019-03-12T20:21:13.988Z,94.80
2019-03-12T20:24:33.202Z,95.40
2019-03-12T20:27:50.132Z,95.30
2019-03-12T20:30:50.913Z,96.00
2019-03-12T20:34:01.617Z,95.90
2019-03-12T20:37:06.333Z,96.40
2019-03-12T20:40:19.844Z,96.20
2019-03-12T20:43:24.867Z,96.90
2019-03-12T20:46:32.143Z,97.20
2019-03-12T20:49:29.938Z,97.20
2019-03-12T20:52:26.557Z,97.30
2019-03-12T20:55:46.049Z,97.40
2019-03-12T20:59:02.504Z,97.40
2019-03-12T21:02:08.508Z,97.80
2019-03-12T21:05:14.525Z,97.80
2019-03-12T21:08:29.684Z,98.00
2019-03-12T21:11:54.251Z,98.50
2019-03-12T21:15:09.356Z,98.60
2019-03-12T21:18:18.539Z,99.20
2019-03-12T21:21:34.383Z,99.30
2019-03-12T21:24:24.539Z,99.90
2019-03-12T21:27:21.507Z,99.90
2019-03-12T21:29:50.509Z,99.90
2019-03-12T21:32:20.617Z,99.90
2019-03-12T21:34:51.664Z,99.90
2019-03-12T21:37:24.594Z,99.90
2019-03-12T21:39:56.057Z,99.90
2019-03-12T21:42:25.911Z,99.90
2019-03-12T21:44:55.666Z,99.90
2019-03-12T21:47:25.440Z,99.90
2019-03-12T21:49:58.159Z,99.90
2019-03-12T21:52:32.620Z,99.90
2019-03-12T21:55:02.422Z,99.90
2019-03-12T21:57:32.065Z,99.90
2019-03-12T22:00:01.699Z,99.90
2019-03-12T22:02:31.341Z,99.90
2019-03-12T22:05:01.968Z,99.90
2019-03-12T22:07:31.644Z,99.90
2019-03-12T22:10:01.309Z,99.90
2019-03-12T22:12:30.967Z,99.90
2019-03-12T22:15:00.624Z,99.90
2019-03-12T22:17:30.289Z,99.90
2019-03-12T22:19:59.990Z,99.90
2019-03-12T22:22:33.963Z,99.90
2019-03-12T22:25:03.827Z,99.90
2019-03-12T22:27:33.471Z,99.90
2019-03-12T22:30:03.265Z,99.90
2019-03-12T22:32:32.910Z,99.90
2019-03-12T22:35:02.560Z,99.90
2019-03-12T22:37:32.205Z,99.90
2019-03-12T22:40:01.817Z,99.90
2019-03-12T22:42:31.521Z,99.90
2019-03-12T22:45:01.153Z,99.90
2019-03-12T22:47:30.800Z,99.90
2019-03-12T22:50:00.532Z,99.80
2019-03-12T22:52:30.194Z,99.90
2019-03-12T22:55:03.208Z,99.90
2019-03-12T22:57:31.141Z,99.90
2019-03-12T23:00:00.823Z,99.90
2019-03-12T23:02:30.521Z,99.90
2019-03-12T23:05:00.329Z,99.90
2019-03-12T23:07:30.088Z,99.90
2019-03-12T23:09:59.844Z,99.90
2019-03-12T23:12:29.553Z,99.90
2019-03-12T23:14:59.179Z,99.90
2019-03-12T23:17:28.891Z,99.90
2019-03-12T23:19:58.659Z,99.90
2019-03-12T23:22:28.532Z,99.90
2019-03-12T23:24:58.297Z,99.90
2019-03-12T23:27:28.138Z,99.90
2019-03-12T23:29:57.845Z,99.90
2019-03-12T23:32:27.586Z,99.90
2019-03-12T23:34:57.654Z,99.90
2019-03-12T23:37:27.360Z,99.90
2019-03-12T23:39:57.042Z,99.90
2019-03-12T23:42:26.736Z,99.90
2019-03-12T23:44:56.496Z,99.90
2019-03-12T23:47:26.110Z,99.90
2019-03-12T23:49:55.791Z,99.90
2019-03-12T23:52:25.415Z,99.90
2019-03-12T23:54:55.068Z,99.90
2019-03-12T23:57:24.726Z,99.90
2019-03-12T23:59:54.376Z,99.90
